Data for 04/06/2007

Time Sea-Level Adjusted Pressure Absolute Pressure Temperature Relative Humidity Dew Point   
(mb) (inHg) (mb) (inHg) (C) (F) (%) (C) (F)
00:05 1027 30.33 856 25.28 -1.9 28.5 84 -4.4 24.1
00:10 1027 30.33 856 25.28 -2 28.4 84 -4.4 24.1
00:15 1027 30.33 856 25.28 -2 28.4 84 -4.4 24
00:20 1027 30.33 857 25.31 -2 28.4 83 -4.5 23.8
00:25 1027 30.33 857 25.31 -2 28.4 83 -4.5 23.8
00:30 1027 30.33 857 25.31 -2 28.4 82 -4.6 23.7
00:35 1027 30.33 857 25.31 -2.1 28.3 83 -4.6 23.8
00:40 1027 30.33 857 25.31 -2.1 28.2 84 -4.5 23.9
00:45 1028 30.36 857 25.31 -2.1 28.2 84 -4.5 23.8
00:50 1027 30.33 857 25.31 -2.1 28.1 83 -4.6 23.6
00:55 1028 30.36 857 25.31 -2.2 28 83 -4.8 23.4
01:00 1027 30.33 857 25.31 -2.2 28 81 -5 23
01:05 1027 30.33 857 25.31 -2.2 28 80 -5.1 22.7
01:10 1028 30.36 857 25.31 -2.2 28 80 -5.2 22.6
01:15 1028 30.36 857 25.31 -2.2 28 80 -5.2 22.6
01:20 1028 30.36 857 25.31 -2.2 28 80 -5.2 22.6
01:25 1028 30.36 857 25.31 -2.3 27.9 80 -5.3 22.5
01:30 1028 30.36 857 25.31 -2.3 27.9 81 -5.2 22.6
01:35 1028 30.36 857 25.31 -2.3 27.9 80 -5.2 22.6
01:40 1028 30.36 857 25.31 -2.3 27.8 80 -5.3 22.4
01:45 1028 30.36 857 25.31 -2.4 27.7 81 -5.2 22.7
01:50 1028 30.36 857 25.31 -2.4 27.7 82 -5.1 22.8
01:55 1028 30.36 857 25.31 -2.5 27.5 83 -5 23
02:00 1028 30.36 857 25.31 -2.6 27.4 84 -5 23.1
02:05 1028 30.36 857 25.31 -2.6 27.3 84 -4.9 23.1
02:10 1028 30.36 857 25.31 -2.6 27.3 84 -5 23.1
02:15 1028 30.36 857 25.31 -2.7 27.2 83 -5.1 22.8
02:20 1028 30.36 857 25.31 -2.7 27.1 83 -5.2 22.7
02:25 1028 30.36 857 25.31 -2.7 27.2 81 -5.5 22.2
02:30 1028 30.36 857 25.31 -2.6 27.3 81 -5.5 22.2
02:35 1028 30.36 857 25.31 -2.7 27.2 82 -5.4 22.3
02:40 1028 30.36 857 25.31 -2.7 27.2 81 -5.5 22.1
02:45 1028 30.36 857 25.31 -2.7 27.1 81 -5.6 22
02:50 1028 30.36 857 25.31 -2.7 27.1 80 -5.7 21.8
02:55 1027 30.33 857 25.31 -2.7 27.1 79 -5.8 21.5
03:00 1027 30.33 857 25.31 -2.8 26.9 80 -5.9 21.4
03:05 1027 30.33 857 25.31 -2.9 26.9 79 -5.9 21.3
03:10 1027 30.33 857 25.31 -2.9 26.8 79 -5.9 21.3
03:15 1027 30.33 857 25.31 -3 26.7 80 -5.9 21.4
03:20 1027 30.33 857 25.31 -3 26.7 80 -6 21.2
03:25 1027 30.33 857 25.31 -3 26.6 80 -6 21.3
03:30 1027 30.33 857 25.31 -3 26.6 80 -6 21.3
03:35 1027 30.33 856 25.28 -3 26.6 81 -5.9 21.3
03:40 1027 30.33 857 25.31 -3 26.6 80 -6 21.2
03:45 1027 30.33 856 25.28 -3.1 26.5 81 -5.9 21.4
03:50 1027 30.33 856 25.28 -3 26.6 81 -5.9 21.4
03:55 1027 30.33 856 25.28 -3 26.5 81 -5.9 21.4
04:00 1027 30.33 857 25.31 -3.1 26.4 80 -6 21.2
04:05 1027 30.33 856 25.28 -3.1 26.5 79 -6.1 21
04:10 1027 30.33 856 25.28 -3 26.6 79 -6.1 21.1
04:15 1027 30.33 856 25.28 -3 26.5 80 -6 21.2
04:20 1027 30.33 856 25.28 -3.1 26.5 81 -5.9 21.4
04:25 1027 30.33 856 25.28 -3.1 26.5 81 -5.8 21.5
04:30 1027 30.33 856 25.28 -3.1 26.5 81 -5.8 21.5
04:35 1027 30.33 856 25.28 -3.1 26.4 83 -5.7 21.8
04:40 1027 30.33 856 25.28 -3.1 26.4 83 -5.6 21.9
04:45 1027 30.33 856 25.28 -3.2 26.2 84 -5.5 22.2
04:50 1027 30.33 856 25.28 -3.2 26.2 85 -5.4 22.4
04:55 1027 30.33 856 25.28 -3.3 26.1 87 -5.2 22.6
05:00 1027 30.33 856 25.28 -3.4 26 88 -5.1 22.8
05:05 1027 30.33 856 25.28 -3.4 25.9 89 -5 22.9
05:10 1027 30.33 856 25.28 -3.4 25.9 88 -5.1 22.8
05:15 1027 30.33 856 25.28 -3.4 25.9 88 -5 22.9
05:20 1027 30.33 856 25.28 -3.4 25.8 89 -5 23
05:25 1027 30.33 856 25.28 -3.4 25.9 89 -5 23
05:30 1027 30.33 856 25.28 -3.4 25.9 89 -4.9 23.2
05:35 1027 30.33 856 25.28 -3.4 25.9 90 -4.9 23.2
05:40 1027 30.33 856 25.28 -3.4 25.9 90 -4.9 23.3
05:45 1027 30.33 856 25.28 -3.5 25.8 90 -4.9 23.2
05:50 1027 30.33 857 25.31 -3.4 25.8 91 -4.8 23.4
05:55 1027 30.33 857 25.31 -3.4 25.8 91 -4.7 23.6
06:00 1027 30.33 857 25.31 -3.5 25.7 91 -4.7 23.5
06:05 1027 30.33 857 25.31 -3.5 25.7 91 -4.7 23.5
06:10 1027 30.33 856 25.28 -3.5 25.7 92 -4.7 23.6
06:15 1027 30.33 856 25.28 -3.5 25.7 91 -4.7 23.5
06:20 1027 30.33 856 25.28 -3.6 25.6 92 -4.7 23.6
06:25 1027 30.33 856 25.28 -3.6 25.5 92 -4.7 23.6
06:30 1027 30.33 856 25.28 -3.7 25.4 93 -4.6 23.7
06:35 1027 30.33 856 25.28 -3.7 25.4 94 -4.6 23.8
06:40 1027 30.33 856 25.28 -3.7 25.3 94 -4.6 23.6
06:45 1027 30.33 856 25.28 -3.7 25.3 94 -4.6 23.7
06:50 1027 30.33 856 25.28 -3.7 25.3 94 -4.6 23.8
06:55 1027 30.33 856 25.28 -3.8 25.2 94 -4.6 23.8
07:00 1027 30.33 856 25.28 -3.8 25.2 94 -4.6 23.8
07:05 1027 30.33 856 25.28 -3.8 25.2 93 -4.7 23.5
07:10 1027 30.33 856 25.28 -3.7 25.3 93 -4.7 23.6
07:15 1027 30.33 856 25.28 -3.7 25.4 93 -4.7 23.5
07:20 1027 30.33 856 25.28 -3.6 25.4 92 -4.7 23.5
07:25 1027 30.33 856 25.28 -3.6 25.5 92 -4.7 23.5
07:30 1027 30.33 856 25.28 -3.6 25.6 91 -4.8 23.3
07:35 1027 30.33 857 25.31 -3.5 25.8 91 -4.8 23.4
07:40 1027 30.33 857 25.31 -3.4 25.8 90 -4.9 23.2
07:45 1027 30.33 857 25.31 -3.4 25.9 89 -5 23
07:50 1027 30.33 857 25.31 -3.4 25.8 89 -5 23
07:55 1027 30.33 857 25.31 -3.4 25.9 89 -5 23
08:00 1027 30.33 856 25.28 -3.4 25.9 88 -5 23
08:05 1027 30.33 856 25.28 -3.4 26 88 -5 22.9
08:10 1027 30.33 856 25.28 -3.4 25.9 89 -5 23
08:15 1027 30.33 856 25.28 -3.4 25.9 88 -5 23
08:20 1027 30.33 856 25.28 -3.5 25.8 89 -4.9 23.1
08:25 1027 30.33 856 25.28 -3.4 25.8 89 -5 23
08:30 1027 30.33 856 25.28 -3.5 25.7 90 -5 23.1
08:35 1027 30.33 856 25.28 -3.5 25.7 89 -5 23
08:40 1027 30.33 856 25.28 -3.5 25.8 90 -4.9 23.1
08:45 1027 30.33 856 25.28 -3.5 25.7 90 -4.9 23.2
08:50 1027 30.33 856 25.28 -3.5 25.7 90 -4.9 23.2
08:55 1027 30.33 856 25.28 -3.5 25.7 90 -4.9 23.1
09:00 1027 30.33 856 25.28 -3.5 25.6 90 -4.9 23.2
09:05 1027 30.33 856 25.28 -3.5 25.6 90 -5 23
09:10 1027 30.33 856 25.28 -3.5 25.7 89 -5 23
09:15 1027 30.33 856 25.28 -3.4 25.9 88 -5.2 22.7
09:20 1027 30.33 856 25.28 -3.4 25.9 87 -5.2 22.6
09:25 1027 30.33 856 25.28 -3.4 25.9 87 -5.2 22.6
09:30 1027 30.33 856 25.28 -3.4 25.9 87 -5.2 22.6
09:35 1027 30.33 856 25.28 -3.3 26.1 87 -5.2 22.7
09:40 1027 30.33 856 25.28 -3.3 26.1 88 -5 22.9
09:45 1027 30.33 856 25.28 -3.3 26.1 87 -5.2 22.7
09:50 1027 30.33 856 25.28 -3.2 26.2 87 -5 22.9
09:55 1027 30.33 856 25.28 -3.1 26.4 86 -5.1 22.8
10:00 1027 30.33 856 25.28 -3.1 26.5 85 -5.3 22.5
10:05 1027 30.33 856 25.28 -3 26.6 85 -5.1 22.8
10:10 1027 30.33 856 25.28 -3 26.7 84 -5.2 22.6
10:15 1027 30.33 856 25.28 -2.9 26.7 85 -5.1 22.8
10:20 1027 30.33 856 25.28 -2.8 26.9 84 -5.2 22.7
10:25 1027 30.33 856 25.28 -2.7 27.1 84 -5.1 22.9
10:30 1027 30.33 856 25.28 -2.6 27.3 82 -5.2 22.6
10:35 1027 30.33 856 25.28 -2.6 27.4 82 -5.2 22.6
10:40 1027 30.33 856 25.28 -2.3 27.9 81 -5.2 22.7
10:45 1027 30.33 856 25.28 -2.4 27.7 81 -5.2 22.6
10:50 1027 30.33 856 25.28 -2.3 27.9 80 -5.2 22.6
10:55 1027 30.33 856 25.28 -2.3 27.8 80 -5.3 22.4
11:00 1027 30.33 856 25.28 -2.3 27.9 81 -5.1 22.8
11:05 1027 30.33 856 25.28 -2.2 28.1 81 -5 23
11:10 1027 30.33 856 25.28 -2 28.5 81 -4.9 23.3
11:15 1026 30.3 856 25.28 -1.8 28.8 79 -4.9 23.2
11:20 1026 30.3 856 25.28 -1.5 29.3 78 -4.9 23.3
11:25 1026 30.3 856 25.28 -1.4 29.4 78 -4.8 23.3
11:30 1026 30.3 856 25.28 -1.6 29.1 80 -4.6 23.7
11:35 1026 30.3 856 25.28 -1.6 29.2 80 -4.6 23.7
11:40 1026 30.3 856 25.28 -1.2 29.8 78 -4.6 23.6
11:45 1026 30.3 855 25.25 -1.3 29.6 79 -4.5 23.8
11:50 1026 30.3 855 25.25 -1.1 30 80 -4.2 24.4
11:55 1026 30.3 855 25.25 -0.9 30.4 79 -4.2 24.5
12:00 1026 30.3 855 25.25 -0.6 30.9 77 -4.2 24.5
12:05 1026 30.3 855 25.25 -0.6 30.9 77 -4.1 24.6
12:10 1026 30.3 855 25.25 -0.6 30.9 77 -4.1 24.6
12:15 1026 30.3 855 25.25 -0.5 31 78 -3.9 24.9
12:20 1026 30.3 855 25.25 -0.4 31.3 79 -3.7 25.4
12:25 1026 30.3 855 25.25 -0.2 31.6 77 -3.8 25.1
12:30 1026 30.3 855 25.25 -0.6 30.9 76 -4.3 24.3
12:35 1026 30.3 855 25.25 -1 30.3 77 -4.6 23.8
12:40 1026 30.3 855 25.25 -0.8 30.6 77 -4.4 24.1
12:45 1026 30.3 855 25.25 -0.9 30.5 76 -4.5 23.9
12:50 1026 30.3 855 25.25 -0.9 30.3 77 -4.5 23.9
12:55 1026 30.3 855 25.25 -0.9 30.4 76 -4.6 23.7
13:00 1026 30.3 855 25.25 -0.5 31 75 -4.4 24
13:05 1026 30.3 855 25.25 -0.6 30.9 75 -4.6 23.8
13:10 1026 30.3 855 25.25 -0.7 30.8 76 -4.4 24.1
13:15 1026 30.3 855 25.25 -0.2 31.6 73 -4.5 23.9
13:20 1026 30.3 855 25.25 -0.5 31.1 74 -4.6 23.7
13:25 1026 30.3 855 25.25 -0.2 31.6 72 -4.6 23.7
13:30 1026 30.3 855 25.25 -0.3 31.4 72 -4.8 23.3
13:35 1026 30.3 855 25.25 -0.6 31 72 -4.9 23.1
13:40 1026 30.3 855 25.25 -0.5 31.1 72 -4.9 23.1
13:45 1026 30.3 855 25.25 -0.3 31.4 71 -4.9 23.2
13:50 1025 30.27 855 25.25 -0.5 31.2 73 -4.7 23.6
13:55 1026 30.3 855 25.25 -0.5 31.1 72 -5 23.1
14:00 1026 30.3 855 25.25 -0.4 31.3 73 -4.7 23.5
14:05 1026 30.3 855 25.25 0.1 32.2 68 -5.1 22.9
14:10 1026 30.3 855 25.25 -0.2 31.6 70 -5.1 22.8
14:15 1026 30.3 855 25.25 -0.1 31.9 68 -5.3 22.5
14:20 1025 30.27 855 25.25 -0.1 31.8 69 -5.2 22.6
14:25 1026 30.3 855 25.25 -0.2 31.6 70 -5.1 22.9
14:30 1026 30.3 855 25.25 -0.2 31.6 68 -5.4 22.2
14:35 1025 30.27 855 25.25 -0.2 31.7 69 -5.1 22.8
14:40 1025 30.27 855 25.25 -0.1 31.9 69 -5.1 22.8
14:45 1025 30.27 855 25.25 -0 31.9 70 -4.8 23.4
14:50 1025 30.27 855 25.25 0.4 32.7 70 -4.5 23.9
14:55 1025 30.27 854 25.22 0.2 32.4 68 -5 23
15:00 1025 30.27 854 25.22 0 32 70 -4.9 23.2
15:05 1025 30.27 854 25.22 0.2 32.4 68 -4.9 23.1
15:10 1025 30.27 854 25.22 0.1 32.2 69 -4.9 23.2
15:15 1025 30.27 854 25.22 0.1 32.2 69 -5 23
15:20 1025 30.27 854 25.22 -0.1 31.8 70 -5 23
15:25 1025 30.27 854 25.22 0.1 32.2 69 -4.9 23.2
15:30 1025 30.27 854 25.22 0.3 32.6 68 -4.8 23.3
15:35 1025 30.27 854 25.22 0.1 32.2 68 -5.1 22.8
15:40 1025 30.27 854 25.22 0.1 32.3 69 -4.9 23.2
15:45 1025 30.27 854 25.22 -0 32 69 -5.1 22.8
15:50 1025 30.27 854 25.22 -0.1 31.8 68 -5.2 22.6
15:55 1025 30.27 854 25.22 0.1 32.1 68 -5.1 22.7
16:00 1025 30.27 854 25.22 -0.3 31.5 70 -5.1 22.8
16:05 1025 30.27 854 25.22 -0.1 31.7 68 -5.3 22.4
16:10 1024 30.24 854 25.22 -0 32 70 -4.9 23.2
16:15 1025 30.27 854 25.22 -0.1 31.9 71 -4.8 23.4
16:20 1024 30.24 854 25.22 -0.1 31.9 69 -5 23
16:25 1024 30.24 854 25.22 -0.2 31.6 70 -5 23
16:30 1024 30.24 854 25.22 -0.1 31.7 70 -5 23
16:35 1024 30.24 853 25.19 -0.4 31.3 71 -5 23
16:40 1024 30.24 853 25.19 -0.6 30.9 73 -4.8 23.3
16:45 1024 30.24 854 25.22 -0.7 30.7 73 -5 23
16:50 1024 30.24 853 25.19 -0.8 30.5 73 -5 23
16:55 1024 30.24 853 25.19 -1.1 30.1 75 -5 23
17:00 1024 30.24 853 25.19 -1.1 30.1 75 -4.9 23.2
17:05 1024 30.24 853 25.19 -1.1 30 74 -5.1 22.8
17:10 1024 30.24 853 25.19 -1.2 29.8 75 -5.1 22.9
17:15 1024 30.24 853 25.19 -1.3 29.7 76 -5 22.9
17:20 1024 30.24 853 25.19 -1.3 29.6 77 -4.9 23.2
17:25 1024 30.24 853 25.19 -1.3 29.6 76 -5.1 22.9
17:30 1024 30.24 853 25.19 -1.5 29.3 76 -5.1 22.8
17:35 1024 30.24 853 25.19 -1.4 29.5 77 -5 23.1
17:40 1024 30.24 853 25.19 -1.5 29.4 77 -5 23
17:45 1024 30.24 853 25.19 -1.7 28.9 78 -5 23
17:50 1024 30.24 853 25.19 -1.9 28.6 78 -5.2 22.7
17:55 1024 30.24 853 25.19 -1.7 28.9 77 -5.2 22.7
18:00 1024 30.24 853 25.19 -2 28.4 79 -5.1 22.8
18:05 1024 30.24 853 25.19 -2 28.4 79 -5.1 22.8
18:10 1024 30.24 853 25.19 -2.1 28.2 80 -5.2 22.7
18:15 1024 30.24 853 25.19 -2.2 28.1 79 -5.3 22.5
18:20 1024 30.24 853 25.19 -2.2 28.1 81 -5.1 22.9
18:25 1024 30.24 853 25.19 -2.4 27.7 81 -5.2 22.6
18:30 1024 30.24 853 25.19 -2.4 27.7 80 -5.3 22.4
18:35 1024 30.24 853 25.19 -2.6 27.4 81 -5.4 22.2
18:40 1024 30.24 853 25.19 -2.7 27.1 81 -5.5 22.2
18:45 1024 30.24 853 25.19 -2.9 26.9 83 -5.4 22.3
18:50 1024 30.24 853 25.19 -2.9 26.7 83 -5.5 22.1
18:55 1024 30.24 853 25.19 -3.1 26.5 83 -5.5 22
19:00 1024 30.24 853 25.19 -3.1 26.4 84 -5.5 22.1
19:05 1024 30.24 853 25.19 -3.1 26.4 83 -5.6 21.9
19:10 1024 30.24 853 25.19 -3.2 26.3 83 -5.6 21.9
19:15 1024 30.24 853 25.19 -3.2 26.2 83 -5.7 21.8
19:20 1024 30.24 853 25.19 -3.2 26.2 84 -5.5 22.1
19:25 1024 30.24 853 25.19 -3.3 26.1 85 -5.5 22
19:30 1024 30.24 853 25.19 -3.4 26 84 -5.6 21.8
19:35 1024 30.24 853 25.19 -3.4 25.9 84 -5.8 21.6
19:40 1024 30.24 853 25.19 -3.5 25.8 84 -5.7 21.7
19:45 1024 30.24 853 25.19 -3.5 25.6 85 -5.8 21.6
19:50 1024 30.24 853 25.19 -3.6 25.6 84 -5.9 21.4
19:55 1024 30.24 853 25.19 -3.6 25.6 84 -5.9 21.4
20:00 1024 30.24 853 25.19 -3.6 25.5 84 -5.9 21.3
20:05 1024 30.24 853 25.19 -3.7 25.4 84 -6 21.3
20:10 1024 30.24 853 25.19 -3.7 25.3 85 -5.9 21.4
20:15 1024 30.24 853 25.19 -3.8 25.2 85 -5.9 21.4
20:20 1024 30.24 853 25.19 -3.9 25.1 85 -6 21.2
20:25 1024 30.24 853 25.19 -3.8 25.2 86 -5.9 21.5
20:30 1024 30.24 853 25.19 -3.9 25 86 -5.9 21.5
20:35 1024 30.24 853 25.19 -3.9 25 86 -5.9 21.4
20:40 1024 30.24 853 25.19 -4 24.9 86 -6 21.3
20:45 1024 30.24 853 25.19 -4 24.8 86 -5.9 21.3
20:50 1024 30.24 853 25.19 -4 24.8 86 -6 21.2
20:55 1024 30.24 853 25.19 -4.1 24.7 87 -6 21.3
21:00 1024 30.24 853 25.19 -4.1 24.7 87 -6 21.2
21:05 1024 30.24 853 25.19 -4.1 24.5 87 -6 21.2
21:10 1024 30.24 853 25.19 -4.1 24.6 87 -6 21.2
21:15 1024 30.24 853 25.19 -4.2 24.5 86 -6.1 21
21:20 1024 30.24 853 25.19 -4.1 24.5 86 -6.1 21
21:25 1024 30.24 853 25.19 -4.2 24.5 87 -6.1 21.1
21:30 1024 30.24 853 25.19 -4.2 24.5 87 -6 21.1
21:35 1024 30.24 853 25.19 -4.2 24.5 87 -6 21.1
21:40 1023 30.21 853 25.19 -4.2 24.4 87 -6.1 21
21:45 1024 30.24 853 25.19 -4.2 24.5 87 -6.1 21
21:50 1024 30.24 853 25.19 -4.2 24.4 87 -6.1 21
21:55 1024 30.24 853 25.19 -4.2 24.4 87 -6.1 21.1
22:00 1024 30.24 853 25.19 -4.2 24.4 87 -6.1 21
22:05 1023 30.21 853 25.19 -4.3 24.3 87 -6.1 20.9
22:10 1024 30.24 853 25.19 -4.3 24.2 87 -6.2 20.8
22:15 1023 30.21 853 25.19 -4.3 24.2 87 -6.2 20.8
22:20 1023 30.21 853 25.19 -4.3 24.2 87 -6.2 20.9
22:25 1023 30.21 853 25.19 -4.4 24.2 87 -6.2 20.8
22:30 1023 30.21 853 25.19 -4.4 24.1 87 -6.2 20.8
22:35 1023 30.21 853 25.19 -4.4 24.1 87 -6.2 20.8
22:40 1023 30.21 853 25.19 -4.3 24.2 86 -6.3 20.6
22:45 1023 30.21 852 25.16 -4.3 24.3 86 -6.4 20.5
22:50 1023 30.21 853 25.19 -4.3 24.3 85 -6.4 20.4
22:55 1023 30.21 853 25.19 -4.3 24.2 85 -6.5 20.4
23:00 1023 30.21 852 25.16 -4.4 24.2 86 -6.3 20.7
23:05 1023 30.21 852 25.16 -4.4 24.1 87 -6.2 20.8
23:10 1023 30.21 852 25.16 -4.5 23.8 88 -6.2 20.8
23:15 1023 30.21 852 25.16 -4.6 23.7 89 -6.2 20.9
23:20 1023 30.21 852 25.16 -4.7 23.6 89 -6.2 20.9
23:25 1023 30.21 852 25.16 -4.6 23.6 89 -6.2 20.8
23:30 1023 30.21 852 25.16 -4.7 23.6 89 -6.2 20.8
23:35 1023 30.21 852 25.16 -4.7 23.5 90 -6.1 21
23:40 1023 30.21 852 25.16 -4.8 23.4 90 -6.1 20.9
23:45 1023 30.21 852 25.16 -4.9 23.2 91 -6.2 20.8
23:50 1023 30.21 852 25.16 -4.9 23.2 91 -6.2 20.9
23:55 1023 30.21 852 25.16 -4.9 23.1 91 -6.2 20.9
24:00 1023 30.21 852 25.16 -4.9 23.2 91 -6.1 21